createdAt,value
2022-07-31T00:00:15.349Z,22.30
2022-07-31T00:02:42.187Z,22.30
2022-07-31T00:05:09.560Z,22.20
2022-07-31T00:07:36.411Z,22.20
2022-07-31T00:10:04.953Z,22.20
2022-07-31T00:12:32.165Z,22.20
2022-07-31T00:14:58.913Z,22.10
2022-07-31T00:17:25.691Z,22.10
2022-07-31T00:19:52.588Z,22.10
2022-07-31T00:22:19.396Z,22.10
2022-07-31T00:24:46.112Z,22.10
2022-07-31T00:27:12.922Z,22.00
2022-07-31T00:29:42.499Z,22.00
2022-07-31T00:32:09.280Z,22.00
2022-07-31T00:34:35.979Z,22.00
2022-07-31T00:37:03.256Z,22.00
2022-07-31T00:39:31.066Z,21.90
2022-07-31T00:41:58.098Z,21.90
2022-07-31T00:44:25.205Z,21.80
2022-07-31T00:46:52.918Z,21.80
2022-07-31T00:49:20.409Z,21.80
2022-07-31T00:51:48.094Z,21.80
2022-07-31T00:54:22.702Z,21.80
2022-07-31T00:56:50.647Z,21.70
2022-07-31T00:59:24.283Z,21.70
2022-07-31T01:01:52.060Z,21.70
2022-07-31T01:04:19.867Z,21.70
2022-07-31T01:06:47.431Z,21.60
2022-07-31T01:09:15.269Z,21.60
2022-07-31T01:12:00.579Z,21.60
2022-07-31T01:14:32.901Z,21.60
2022-07-31T01:17:01.825Z,21.50
2022-07-31T01:19:42.765Z,21.60
2022-07-31T01:22:32.960Z,21.50
2022-07-31T01:25:07.414Z,21.50
2022-07-31T01:27:52.494Z,21.50
2022-07-31T01:30:26.621Z,21.40
2022-07-31T01:33:02.916Z,21.40
2022-07-31T01:35:35.656Z,21.40
2022-07-31T01:38:10.168Z,21.40
2022-07-31T01:40:47.331Z,21.30
2022-07-31T01:43:22.451Z,21.30
2022-07-31T01:45:54.738Z,21.20
2022-07-31T01:48:23.122Z,21.30
2022-07-31T01:50:53.970Z,21.20
2022-07-31T01:53:24.059Z,21.20
2022-07-31T01:56:02.106Z,21.20
2022-07-31T01:58:35.400Z,21.10
2022-07-31T02:01:04.809Z,21.10
2022-07-31T02:03:42.735Z,21.10
2022-07-31T02:06:12.998Z,21.10
2022-07-31T02:08:40.894Z,21.10
2022-07-31T02:11:09.103Z,21.00
2022-07-31T02:13:37.434Z,21.00
2022-07-31T02:16:05.692Z,21.00
2022-07-31T02:18:34.188Z,21.00
2022-07-31T02:21:01.104Z,20.90
2022-07-31T02:23:27.939Z,20.90
2022-07-31T02:25:54.902Z,20.90
2022-07-31T02:28:23.282Z,20.90
2022-07-31T02:30:51.776Z,20.90
2022-07-31T02:33:21.759Z,20.90
2022-07-31T02:35:50.348Z,20.80
2022-07-31T02:38:22.786Z,20.80
2022-07-31T02:40:58.856Z,20.80
2022-07-31T02:43:30.409Z,20.70
2022-07-31T02:45:58.716Z,20.70
2022-07-31T02:48:26.497Z,20.70
2022-07-31T02:50:53.703Z,20.70
2022-07-31T02:53:21.129Z,20.70
2022-07-31T02:55:49.528Z,20.70
2022-07-31T02:58:16.292Z,20.60
2022-07-31T03:00:43.262Z,20.60
2022-07-31T03:03:09.996Z,20.60
2022-07-31T03:05:36.678Z,20.60
2022-07-31T03:08:03.511Z,20.50
2022-07-31T03:10:30.358Z,20.50
2022-07-31T03:12:58.270Z,20.50
2022-07-31T03:15:27.111Z,20.50
2022-07-31T03:17:55.034Z,20.50
2022-07-31T03:20:22.425Z,20.40
2022-07-31T03:22:49.546Z,20.40
2022-07-31T03:25:21.744Z,20.50
2022-07-31T03:27:55.817Z,20.50
2022-07-31T03:30:27.635Z,20.40
2022-07-31T03:32:55.949Z,20.40
2022-07-31T03:35:24.790Z,20.40
2022-07-31T03:37:52.721Z,20.50
2022-07-31T03:40:20.259Z,20.40
2022-07-31T03:42:49.671Z,20.40
2022-07-31T03:45:17.477Z,20.40
2022-07-31T03:47:44.621Z,20.50
2022-07-31T03:50:11.520Z,20.40
2022-07-31T03:52:39.919Z,20.40
2022-07-31T03:55:08.287Z,20.40
2022-07-31T03:57:37.914Z,20.40
2022-07-31T04:00:07.406Z,20.40
2022-07-31T04:02:44.570Z,20.40
2022-07-31T04:05:11.522Z,20.40
2022-07-31T04:07:38.281Z,20.40
2022-07-31T04:10:05.481Z,20.40
2022-07-31T04:12:32.348Z,20.30
2022-07-31T04:14:59.190Z,20.30
2022-07-31T04:17:25.970Z,20.40
2022-07-31T04:19:53.073Z,20.40
2022-07-31T04:22:19.987Z,20.30
2022-07-31T04:24:46.715Z,20.30
2022-07-31T04:27:17.596Z,20.30
2022-07-31T04:29:45.462Z,20.30
2022-07-31T04:32:12.504Z,20.30
2022-07-31T04:34:39.772Z,20.30
2022-07-31T04:37:06.901Z,20.30
2022-07-31T04:39:34.368Z,20.30
2022-07-31T04:42:01.686Z,20.30
2022-07-31T04:44:28.695Z,20.30
2022-07-31T04:47:00.270Z,20.30
2022-07-31T04:49:27.295Z,20.20
2022-07-31T04:51:54.087Z,20.20
2022-07-31T04:54:20.859Z,20.20
2022-07-31T04:56:48.571Z,20.20
2022-07-31T04:59:20.187Z,20.20
2022-07-31T05:01:48.115Z,20.20
2022-07-31T05:04:15.015Z,20.10
2022-07-31T05:06:44.130Z,20.10
2022-07-31T05:09:18.417Z,20.10
2022-07-31T05:11:47.545Z,20.10
2022-07-31T05:14:16.633Z,20.00
2022-07-31T05:16:43.960Z,20.00
2022-07-31T05:19:14.889Z,20.00
2022-07-31T05:21:49.659Z,20.00
2022-07-31T05:24:22.525Z,20.00
2022-07-31T05:26:59.276Z,19.90
2022-07-31T05:29:26.912Z,19.90
2022-07-31T05:31:59.523Z,19.90
2022-07-31T05:34:30.173Z,19.90
2022-07-31T05:36:58.600Z,19.90
2022-07-31T05:39:26.088Z,19.90
2022-07-31T05:41:53.223Z,19.90
2022-07-31T05:44:19.999Z,19.90
2022-07-31T05:46:46.781Z,19.90
2022-07-31T05:49:13.692Z,19.90
2022-07-31T05:51:43.832Z,19.90
2022-07-31T05:54:10.950Z,19.90
2022-07-31T05:56:37.705Z,20.00
2022-07-31T05:59:04.581Z,20.00
2022-07-31T06:01:31.429Z,19.90
2022-07-31T06:03:58.788Z,20.00
2022-07-31T06:06:26.044Z,20.00
2022-07-31T06:08:53.007Z,20.00
2022-07-31T06:11:19.927Z,20.00
2022-07-31T06:13:47.378Z,20.00
2022-07-31T06:16:14.950Z,19.90
2022-07-31T06:18:42.739Z,19.90
2022-07-31T06:21:09.973Z,20.00
2022-07-31T06:23:37.362Z,20.00
2022-07-31T06:26:07.521Z,20.00
2022-07-31T06:28:47.913Z,20.10
2022-07-31T06:31:21.234Z,20.10
2022-07-31T06:33:48.877Z,20.20
2022-07-31T06:36:17.353Z,20.20
2022-07-31T06:38:44.263Z,20.20
2022-07-31T06:41:11.730Z,20.30
2022-07-31T06:43:38.674Z,20.30
2022-07-31T06:46:05.806Z,20.30
2022-07-31T06:48:32.499Z,20.30
2022-07-31T06:51:30.307Z,20.40
2022-07-31T06:53:47.278Z,20.40
2022-07-31T06:56:14.381Z,20.50
2022-07-31T06:58:41.155Z,20.50
2022-07-31T07:01:08.083Z,20.60
2022-07-31T07:03:35.573Z,20.70
2022-07-31T07:06:03.522Z,20.70
2022-07-31T07:08:30.317Z,20.80
2022-07-31T07:10:57.116Z,20.80
2022-07-31T07:13:24.231Z,20.90
2022-07-31T07:16:12.421Z,20.90
2022-07-31T07:18:39.248Z,20.90
2022-07-31T07:21:05.987Z,20.90
2022-07-31T07:23:33.919Z,21.00
2022-07-31T07:26:00.684Z,21.00
2022-07-31T07:28:30.691Z,21.00
2022-07-31T07:30:58.205Z,21.10
2022-07-31T07:33:41.767Z,21.20
2022-07-31T07:36:23.426Z,21.30
2022-07-31T07:38:55.128Z,21.50
2022-07-31T07:41:25.998Z,21.70
2022-07-31T07:43:53.962Z,21.80
2022-07-31T07:46:22.815Z,22.00
2022-07-31T07:48:51.035Z,22.20
2022-07-31T07:51:18.086Z,22.30
2022-07-31T07:53:44.882Z,22.40
2022-07-31T07:56:14.529Z,22.50
2022-07-31T07:58:41.293Z,22.50
2022-07-31T08:01:08.709Z,22.50
2022-07-31T08:03:50.185Z,22.50
2022-07-31T08:06:21.513Z,22.60
2022-07-31T08:08:50.268Z,22.70
2022-07-31T08:11:17.981Z,22.80
2022-07-31T08:13:50.259Z,22.80
2022-07-31T08:16:19.683Z,22.90
2022-07-31T08:18:46.441Z,23.00
2022-07-31T08:21:15.554Z,23.10
2022-07-31T08:23:42.371Z,23.10
2022-07-31T08:26:09.273Z,23.10
2022-07-31T08:28:36.817Z,23.10
2022-07-31T08:31:04.073Z,23.10
2022-07-31T08:33:33.003Z,23.20
2022-07-31T08:36:00.780Z,23.30
2022-07-31T08:38:28.827Z,23.30
2022-07-31T08:40:55.626Z,23.30
2022-07-31T08:44:02.436Z,23.30
2022-07-31T08:46:09.961Z,23.40
2022-07-31T08:48:40.745Z,23.40
2022-07-31T08:51:10.657Z,23.40
2022-07-31T08:53:38.961Z,23.40
2022-07-31T08:56:07.924Z,23.40
2022-07-31T08:58:39.078Z,23.30
2022-07-31T09:01:08.131Z,23.30
2022-07-31T09:03:39.220Z,23.30
2022-07-31T09:06:23.568Z,23.30
2022-07-31T09:08:50.482Z,23.30
2022-07-31T09:11:18.759Z,23.30
2022-07-31T09:14:02.838Z,23.30
2022-07-31T09:16:31.327Z,23.30
2022-07-31T09:19:54.023Z,23.30
2022-07-31T09:21:51.960Z,23.30
2022-07-31T09:24:29.459Z,23.40
2022-07-31T09:27:27.987Z,23.40
2022-07-31T09:29:56.866Z,23.40
2022-07-31T09:32:24.138Z,23.40
2022-07-31T09:34:50.878Z,23.40
2022-07-31T09:37:20.667Z,23.40
2022-07-31T09:39:55.502Z,23.40
2022-07-31T09:42:34.621Z,23.40
2022-07-31T09:45:03.035Z,23.50
2022-07-31T09:47:32.388Z,23.60
2022-07-31T09:50:01.688Z,23.70
2022-07-31T09:52:31.236Z,23.80
2022-07-31T09:55:15.905Z,23.80
2022-07-31T09:57:58.639Z,23.90
2022-07-31T10:00:28.324Z,24.00
2022-07-31T10:02:57.007Z,24.00
2022-07-31T10:05:25.888Z,24.10
2022-07-31T10:07:54.461Z,24.10
2022-07-31T10:10:23.543Z,24.30
2022-07-31T10:12:54.825Z,24.60
2022-07-31T10:15:24.018Z,24.70
2022-07-31T10:17:52.344Z,24.80
2022-07-31T10:20:23.557Z,24.80
2022-07-31T10:22:55.538Z,24.80
2022-07-31T10:25:31.624Z,24.80
2022-07-31T10:27:58.712Z,24.90
2022-07-31T10:30:28.400Z,25.10
2022-07-31T10:32:55.981Z,25.20
2022-07-31T10:35:22.872Z,25.30
2022-07-31T10:38:04.100Z,25.30
2022-07-31T10:40:45.391Z,25.40
2022-07-31T10:43:29.172Z,25.40
2022-07-31T10:45:56.878Z,25.40
2022-07-31T10:48:25.955Z,25.30
2022-07-31T10:51:04.794Z,25.30
2022-07-31T10:53:41.427Z,25.30
2022-07-31T10:56:18.008Z,25.30
2022-07-31T10:58:54.406Z,25.30
2022-07-31T11:01:21.794Z,25.30
2022-07-31T11:03:53.195Z,25.40
2022-07-31T11:06:21.592Z,25.50
2022-07-31T11:08:52.395Z,25.60
2022-07-31T11:13:58.207Z,25.60
2022-07-31T11:16:25.523Z,25.60
2022-07-31T11:19:07.043Z,25.60
2022-07-31T11:21:39.898Z,25.60
2022-07-31T11:24:26.891Z,25.50
2022-07-31T11:27:04.870Z,25.50
2022-07-31T11:30:01.674Z,25.70
2022-07-31T11:32:26.278Z,25.80
2022-07-31T11:34:56.219Z,25.90
2022-07-31T11:37:30.660Z,25.90
2022-07-31T11:40:14.560Z,25.90
2022-07-31T11:42:49.965Z,25.80
2022-07-31T11:45:23.145Z,25.90
2022-07-31T11:48:11.233Z,25.90
2022-07-31T11:50:45.004Z,26.10
2022-07-31T11:53:12.380Z,26.30
2022-07-31T11:55:53.957Z,26.50
2022-07-31T11:58:30.937Z,26.60
2022-07-31T12:01:04.696Z,26.60
2022-07-31T12:03:37.208Z,26.60
2022-07-31T12:06:06.303Z,26.60
2022-07-31T12:08:34.935Z,26.60
2022-07-31T12:11:09.144Z,26.70
2022-07-31T12:13:38.530Z,26.80
2022-07-31T12:16:12.053Z,26.90
2022-07-31T12:18:59.723Z,26.90
2022-07-31T12:21:41.405Z,26.80
2022-07-31T12:24:13.564Z,26.70
2022-07-31T12:26:48.869Z,26.60
2022-07-31T12:29:18.832Z,26.80
2022-07-31T12:34:44.167Z,27.20
2022-07-31T12:37:17.128Z,27.50
2022-07-31T12:40:00.989Z,27.80
2022-07-31T12:42:42.999Z,28.10
2022-07-31T12:45:18.447Z,28.40
2022-07-31T12:47:59.559Z,28.40
2022-07-31T12:50:30.984Z,28.40
2022-07-31T12:53:19.941Z,28.20
2022-07-31T12:55:46.932Z,28.10
2022-07-31T12:58:16.407Z,28.10
2022-07-31T13:00:43.160Z,28.10
2022-07-31T13:08:30.284Z,27.90
2022-07-31T13:11:07.546Z,27.80
2022-07-31T13:13:35.278Z,27.70
2022-07-31T13:16:02.209Z,27.60
2022-07-31T13:18:30.152Z,27.50
2022-07-31T13:21:00.742Z,27.50
2022-07-31T13:23:28.044Z,27.50
2022-07-31T13:25:54.933Z,27.60
2022-07-31T13:28:21.852Z,27.60
2022-07-31T13:30:54.695Z,27.70
2022-07-31T13:33:23.370Z,27.70
2022-07-31T13:35:50.206Z,27.60
2022-07-31T13:38:18.194Z,27.60
2022-07-31T13:41:03.947Z,27.50
2022-07-31T13:43:30.867Z,27.50
2022-07-31T13:46:00.514Z,27.50
2022-07-31T13:48:27.894Z,27.50
2022-07-31T13:50:55.081Z,27.40
2022-07-31T13:53:22.003Z,27.40
2022-07-31T13:55:50.319Z,27.40
2022-07-31T13:58:17.874Z,27.30
2022-07-31T14:00:45.179Z,27.20
2022-07-31T14:03:12.952Z,27.10
2022-07-31T14:05:45.418Z,27.00
2022-07-31T14:08:33.248Z,26.90
2022-07-31T14:11:03.042Z,26.60
2022-07-31T14:13:30.166Z,26.30
2022-07-31T14:15:58.045Z,26.10
2022-07-31T14:18:24.810Z,25.90
2022-07-31T14:20:52.279Z,25.90
2022-07-31T14:23:19.653Z,25.80
2022-07-31T14:25:47.074Z,25.80
2022-07-31T14:28:14.213Z,25.90
2022-07-31T14:30:46.617Z,25.90
2022-07-31T14:33:16.915Z,25.80
2022-07-31T14:35:43.595Z,25.70
2022-07-31T14:38:10.619Z,25.60
2022-07-31T14:40:37.600Z,25.50
2022-07-31T14:43:04.565Z,25.40
2022-07-31T14:45:31.384Z,25.30
2022-07-31T14:48:07.852Z,25.30
2022-07-31T14:50:37.713Z,25.20
2022-07-31T14:53:04.835Z,25.00
2022-07-31T14:55:31.916Z,24.80
2022-07-31T14:58:00.137Z,24.80
2022-07-31T15:00:27.426Z,24.70
2022-07-31T15:02:54.512Z,24.70
2022-07-31T15:06:48.835Z,24.70
2022-07-31T15:08:09.362Z,24.60
2022-07-31T15:10:36.224Z,24.70
2022-07-31T15:13:03.123Z,24.80
2022-07-31T15:15:30.030Z,24.90
2022-07-31T15:18:00.698Z,25.00
2022-07-31T15:20:32.842Z,25.20
2022-07-31T15:23:00.243Z,25.20
2022-07-31T15:25:27.065Z,25.20
2022-07-31T15:27:53.841Z,25.20
2022-07-31T15:30:21.580Z,25.20
2022-07-31T15:32:49.023Z,25.20
2022-07-31T15:35:15.971Z,25.20
2022-07-31T15:37:46.223Z,25.20
2022-07-31T15:40:15.366Z,25.10
2022-07-31T15:42:43.837Z,25.00
2022-07-31T15:45:13.433Z,25.00
2022-07-31T15:47:44.381Z,24.90
2022-07-31T15:50:13.903Z,24.80
2022-07-31T15:52:41.459Z,24.70
2022-07-31T15:55:09.531Z,24.60
2022-07-31T15:57:36.597Z,24.50
2022-07-31T16:00:05.535Z,24.40
2022-07-31T16:02:32.643Z,24.30
2022-07-31T16:05:02.637Z,24.10
2022-07-31T16:08:28.799Z,24.10
2022-07-31T16:10:25.812Z,23.90
2022-07-31T16:12:52.721Z,23.80
2022-07-31T16:15:20.515Z,23.70
2022-07-31T16:17:48.273Z,23.60
2022-07-31T16:20:20.638Z,23.50
2022-07-31T16:22:56.858Z,23.30
2022-07-31T16:25:26.939Z,23.20
2022-07-31T16:27:54.319Z,23.20
2022-07-31T16:30:22.489Z,23.20
2022-07-31T16:32:50.065Z,23.10
2022-07-31T16:35:17.477Z,23.10
2022-07-31T16:37:52.687Z,23.10
2022-07-31T16:40:30.315Z,23.10
2022-07-31T16:43:03.650Z,23.00
2022-07-31T16:45:50.246Z,23.00
2022-07-31T16:48:17.063Z,23.00
2022-07-31T16:50:43.807Z,22.90
2022-07-31T16:53:13.604Z,22.90
2022-07-31T16:56:01.470Z,22.80
2022-07-31T16:58:29.321Z,22.70
2022-07-31T17:00:56.578Z,22.70
2022-07-31T17:03:58.686Z,22.70
2022-07-31T17:06:11.601Z,22.70
2022-07-31T17:08:39.410Z,22.70
2022-07-31T17:11:07.587Z,22.70
2022-07-31T17:13:34.375Z,22.70
2022-07-31T17:16:01.132Z,22.70
2022-07-31T17:18:27.925Z,22.80
2022-07-31T17:20:55.818Z,22.80
2022-07-31T17:23:43.109Z,22.80
2022-07-31T17:26:20.757Z,22.80
2022-07-31T17:28:49.274Z,22.90
2022-07-31T17:31:16.217Z,22.90
2022-07-31T17:33:58.414Z,22.90
2022-07-31T17:36:29.285Z,22.90
2022-07-31T17:38:57.174Z,22.90
2022-07-31T17:41:24.618Z,22.90
2022-07-31T17:43:54.094Z,22.90
2022-07-31T17:46:28.188Z,22.90
2022-07-31T17:49:02.002Z,22.90
2022-07-31T17:51:28.850Z,22.90
2022-07-31T17:53:59.218Z,22.90
2022-07-31T17:56:27.853Z,22.90
2022-07-31T17:58:55.840Z,22.90
2022-07-31T18:01:28.467Z,22.80
2022-07-31T18:03:55.854Z,22.80
2022-07-31T18:06:22.699Z,22.80
2022-07-31T18:08:49.465Z,22.80
2022-07-31T18:11:16.287Z,22.80
2022-07-31T18:13:48.826Z,22.80
2022-07-31T18:16:19.280Z,22.80
2022-07-31T18:18:46.383Z,22.70
2022-07-31T18:21:14.476Z,22.70
2022-07-31T18:23:47.271Z,22.70
2022-07-31T18:26:14.569Z,22.60
2022-07-31T18:28:44.367Z,22.60
2022-07-31T18:31:24.181Z,22.60
2022-07-31T18:33:57.845Z,22.50
2022-07-31T18:36:24.636Z,22.50
2022-07-31T18:38:54.117Z,22.50
2022-07-31T18:41:23.241Z,22.50
2022-07-31T18:43:50.313Z,22.40
2022-07-31T18:46:17.167Z,22.40
2022-07-31T18:48:43.974Z,22.30
2022-07-31T18:51:10.797Z,22.30
2022-07-31T18:53:37.659Z,22.30
2022-07-31T18:56:04.593Z,22.20
2022-07-31T18:58:31.390Z,22.10
2022-07-31T19:01:01.247Z,22.10
2022-07-31T19:03:30.746Z,22.00
2022-07-31T19:05:58.599Z,22.00
2022-07-31T19:08:25.427Z,22.00
2022-07-31T19:10:53.635Z,21.90
2022-07-31T19:13:21.788Z,21.80
2022-07-31T19:15:50.704Z,21.80
2022-07-31T19:18:17.847Z,21.70
2022-07-31T19:21:00.074Z,21.70
2022-07-31T19:23:38.561Z,21.60
2022-07-31T19:26:05.555Z,21.60
2022-07-31T19:28:32.874Z,21.60
2022-07-31T19:30:59.638Z,21.60
2022-07-31T19:33:26.561Z,21.60
2022-07-31T19:36:00.351Z,21.60
2022-07-31T19:38:29.327Z,21.60
2022-07-31T19:40:56.099Z,21.50
2022-07-31T19:43:22.882Z,21.50
2022-07-31T19:45:58.834Z,21.50
2022-07-31T19:48:37.002Z,21.50
2022-07-31T19:51:05.970Z,21.50
2022-07-31T19:53:32.902Z,21.50
2022-07-31T19:56:02.133Z,21.50
2022-07-31T19:58:28.905Z,21.40
2022-07-31T20:00:55.692Z,21.40
2022-07-31T20:03:22.573Z,21.30
2022-07-31T20:05:49.370Z,21.40
2022-07-31T20:08:16.055Z,21.30
2022-07-31T20:10:42.869Z,21.30
2022-07-31T20:13:09.815Z,21.20
2022-07-31T20:15:51.267Z,21.20
2022-07-31T20:18:30.708Z,21.20
2022-07-31T20:21:05.447Z,21.20
2022-07-31T20:23:34.260Z,21.20
2022-07-31T20:26:01.494Z,21.20
2022-07-31T20:28:28.391Z,21.10
2022-07-31T20:30:55.136Z,21.10
2022-07-31T20:33:21.985Z,21.10
2022-07-31T20:35:50.586Z,21.10
2022-07-31T20:38:22.015Z,21.10
2022-07-31T20:40:54.225Z,21.10
2022-07-31T20:43:27.118Z,21.10
2022-07-31T20:45:57.424Z,21.10
2022-07-31T20:48:35.274Z,21.20
2022-07-31T20:51:03.830Z,21.20
2022-07-31T20:53:31.118Z,21.10
2022-07-31T20:55:58.612Z,21.10
2022-07-31T20:58:26.397Z,21.10
2022-07-31T21:00:53.541Z,21.10
2022-07-31T21:03:20.702Z,21.10
2022-07-31T21:05:47.962Z,21.10
2022-07-31T21:08:15.380Z,21.10
2022-07-31T21:10:42.213Z,21.10
2022-07-31T21:13:09.474Z,21.10
2022-07-31T21:15:43.359Z,21.10
2022-07-31T21:18:16.628Z,21.10
2022-07-31T21:20:51.040Z,21.10
2022-07-31T21:23:24.240Z,21.10
2022-07-31T21:25:53.117Z,21.10
2022-07-31T21:28:20.748Z,21.10
2022-07-31T21:30:47.794Z,21.10
2022-07-31T21:33:15.148Z,21.10
2022-07-31T21:35:42.317Z,21.10
2022-07-31T21:38:14.672Z,21.10
2022-07-31T21:40:41.545Z,21.10
2022-07-31T21:43:09.604Z,21.10
2022-07-31T21:45:50.655Z,21.10
2022-07-31T21:48:25.283Z,21.10
2022-07-31T21:50:54.854Z,21.10
2022-07-31T21:53:24.899Z,21.10
2022-07-31T21:55:52.032Z,21.10
2022-07-31T21:58:19.242Z,21.10
2022-07-31T22:00:46.517Z,21.10
2022-07-31T22:03:13.401Z,21.10
2022-07-31T22:05:59.245Z,21.10
2022-07-31T22:08:25.945Z,21.10
2022-07-31T22:10:52.775Z,21.10
2022-07-31T22:13:20.334Z,21.10
2022-07-31T22:15:59.294Z,21.10
2022-07-31T22:18:32.500Z,21.10
2022-07-31T22:21:01.213Z,21.10
2022-07-31T22:23:28.798Z,21.10
2022-07-31T22:25:55.922Z,21.10
2022-07-31T22:28:24.115Z,21.10
2022-07-31T22:30:51.963Z,21.10
2022-07-31T22:33:19.780Z,21.10
2022-07-31T22:35:59.354Z,21.10
2022-07-31T22:38:27.920Z,21.10
2022-07-31T22:40:55.069Z,21.10
2022-07-31T22:44:12.036Z,21.10
2022-07-31T22:46:11.915Z,21.20
2022-07-31T22:48:40.563Z,21.20
2022-07-31T22:51:08.002Z,21.20
2022-07-31T22:53:35.110Z,21.20
2022-07-31T22:56:01.916Z,21.20
2022-07-31T22:58:28.639Z,21.20
2022-07-31T23:00:56.354Z,21.20
2022-07-31T23:03:23.089Z,21.20
2022-07-31T23:06:28.111Z,21.20
2022-07-31T23:08:36.935Z,21.20
2022-07-31T23:11:03.824Z,21.20
2022-07-31T23:13:30.539Z,21.20
2022-07-31T23:15:57.316Z,21.20
2022-07-31T23:18:26.539Z,21.20
2022-07-31T23:20:53.336Z,21.20
2022-07-31T23:23:20.072Z,21.20
2022-07-31T23:25:46.823Z,21.20
2022-07-31T23:28:15.376Z,21.20
2022-07-31T23:30:42.245Z,21.20
2022-07-31T23:33:08.962Z,21.20
2022-07-31T23:35:35.711Z,21.20
2022-07-31T23:38:02.483Z,21.20
2022-07-31T23:40:29.302Z,21.20
2022-07-31T23:42:56.026Z,21.20
2022-07-31T23:45:23.564Z,21.20
2022-07-31T23:47:50.889Z,21.20
2022-07-31T23:50:17.928Z,21.20
2022-07-31T23:52:44.729Z,21.20
2022-07-31T23:55:12.090Z,21.20
2022-07-31T23:57:39.976Z,21.20
